Terminal Aerodrome Forecast
Issued by NWS

Home | Current Version | Previous Version | Text Only | Print | Product List | Glossary On
Versions: 1 2 3 4 5 6 7 8 9 10 11 12 13 14 15
665
FTUS43 KDLH 272331
TAFHYR
TAF
KHYR 272331Z 2800/2824 28006KT P6SM OVC020
     FM280700 23005KT P6SM SCT007 OVC015
     FM281500 28007KT P6SM OVC025
     FM281900 30008KT P6SM BKN035
     FM282300 35004KT P6SM SCT035=

USA.gov is the U.S. government's official web portal to all federal, state and local government web resources and services.